aviador You're here:

KGXY Decoded Metar

GREELEY/WELD in CO, USA
Report Time2017-08-20 12:56:00
UTC Time2017-08-20 13:41:10
Flight Rules vfr VFR
WindCalm
Visibility9999 m
Phenomena:N/A
Clouds:N/A
Expected CloudBase > 1,200 ft AGL from Temp-Dew spread
CeilingNone
Temp13°C (ISA +7)
Dew Point10°C (82% RH)
QNH1018 hPa
Density Alt5,522 ft
Elevation4,659 ft
Report Wrong Elevation
Raw Report
KGXY 201256Z AUTO 00000KT 10SM CLR 13/10 A3005 RMK AO2 SLP141
T01330100=

Extra information for KGXY:More info

Metar Taf Metar & Taf Last 4 Metars F.Rules Stats Wind Profile Meteogram Temp Stats Airport Information Weather charts Add Link Nearby VenuesMetar ALERT Operation Metar Decoded Social comments

AIRNAV info for KGXY